x

Shelikof Strait, Ak (46077) Wave Buoy

5:50am - Thu 30th Oct 2014 All times are AKDT. -8 hours from GMT.

  • Sig Wave height 2.3ft
  • Peak Period 4s
  • Average Period 4s
  • Wind
    7mph, 9mph gusts
  • Sea Temp 48°f
  • Air Temp 41°f
  • Sea Pressure 1003.4mb
  • Shelikof  Strait, Ak
  • Shelikof  Strait, Ak

More Historic Weather Station data

Upgrade to MSW Pro to gain access to the past 30 days of data for over 8000 Wavebouys and Weather Stations around the globe.

Join Pro

Comparision Forecast

View Surf forecast
   
Thu 10/30 5:50am 2.5ft 4s 4s 7 9 mph 1003.4mb 48f 41f
4:50am 2.5ft 4s 4s 13 16 mph 1003.9mb 48f 41f
3:50am 2.5ft 5s 4s 18 20 mph 1004.2mb 48f 41f
2:50am 2.5ft 5s 4s 16 20 mph 1004.5mb 48f 41f
1:50am 2.5ft 6s 4s 11 18 mph 1005.1mb 47f 42f
12:50am 2.5ft 6s 4s 9 11 mph 1005.5mb 47f 42f
Wed 10/29 11:50pm 2ft 6s 4s 7 9 mph 1005.4mb 47f 42f
10:50pm 2.5ft 5s 4s 9 13 mph 1005.2mb 48f 43f
9:50pm 2.5ft 6s 5s 9 11 mph 1005mb 47f 44f
8:50pm 2ft 6s 5s 4 7 mph 1005.1mb 47f 44f
7:50pm 2ft 6s 4s 7 9 mph 1005mb 47f 44f
6:50pm 2.5ft 5s 4s 4
mph
1004.7mb 47f 44f
5:50pm 2.5ft 5s 4s 2 4 mph 1004.4mb 47f 45f
4:50pm 2.5ft 6s 4s 2 4 mph 1004.1mb 47f 45f
3:50pm 2.5ft 5s 4s 7 11 mph 1003.9mb 47f 45f
2:50pm 2.5ft 6s 4s 4 7 mph 1004mb 47f 46f
1:50pm 2.5ft 4s 4s 9 11 mph 1003.9mb 48f 45f
12:50pm 2.5ft 4s 4s 9 11 mph 1003.5mb 48f 45f
11:50am 3ft 4s 4s 16 20 mph 1002.6mb 48f 46f
10:50am 3.5ft 5s  -  16 18 mph 1001.7mb 48f 46f
9:50am 4.5ft 6s 4s 18 22 mph 1000.7mb 48f 45f
8:50am 4.5ft 5s 4s 18 22 mph 999.7mb 47f 45f
7:50am 4.5ft 5s 4s 20 25 mph 998.9mb 47f 45f
6:50am 4.5ft 4s 4s 22 27 mph 998mb 47f 44f
5:50am 4.5ft 5s 4s 22 27 mph 997.5mb 47f 44f
4:50am 3.5ft 5s 4s 22 25 mph 996.9mb 47f 45f
3:50am 4ft 5s 4s 22 27 mph 996.3mb 47f 45f
2:50am 4.5ft 4s 4s 25 29 mph 996mb 47f 44f
1:50am 4.5ft 5s 4s 25 29 mph 995.5mb 47f 44f
12:50am 5ft 6s 4s 27 31 mph 995.1mb 47f 44f
Tue 10/28 11:50pm 5ft 5s 4s 29 36 mph 994.7mb 47f 44f
10:50pm 5ft 5s 4s 29 36 mph 994.5mb 47f 42f
9:50pm 4.5ft 4s 4s 31 36 mph 993.6mb 47f 44f
8:50pm 4.5ft 4s 4s 18 20 mph 993.5mb 47f 44f
7:50pm 5ft 4s 4s 29 36 mph 992.5mb 47f 43f
6:50pm 4.5ft 4s 4s 20 22 mph 992.5mb 47f 44f
5:50pm 4ft 4s 4s 18 22 mph 992.3mb 47f 43f
4:50pm 4ft 4s 4s 20 25 mph 992.2mb 47f 43f
3:50pm 4.5ft 5s 4s 22 27 mph 992.4mb 47f 44f
2:50pm 4.5ft 5s 4s 22 27 mph 992.8mb 47f 45f
1:50pm 4.5ft 5s 4s 22 29 mph 993.3mb 47f 44f
12:50pm 4.5ft 5s 4s 22 29 mph 993.7mb 48f 44f
11:50am 4.5ft 4s 4s 22 27 mph 994.3mb 48f 44f
10:50am 4.5ft 5s 4s 25 29 mph 994.1mb 48f 44f
9:50am 4ft 4s 4s 25 29 mph 994.6mb 48f 44f
8:50am 4ft 4s 4s 22 27 mph 994.8mb 48f 44f
7:50am 3ft 4s 4s 20 25 mph 995.4mb 48f 44f
6:50am 3ft 4s 4s 22 27 mph 995.7mb 48f 43f
5:50am 3.5ft 7s 4s 22 27 mph 996.4mb 48f 44f
4:50am 3.5ft 6s 4s 20 22 mph 997.4mb 48f 44f
3:50am 3.5ft 6s 4s 18 22 mph 998.2mb 48f 44f
2:50am 3.5ft 4s 4s 20 22 mph 999.1mb 48f 44f
1:50am 4ft 7s 4s 22 25 mph 1000mb 48f 44f
12:50am 4ft 6s 4s 22 25 mph 1000.9mb 47f 43f
Mon 10/27 11:50pm 3.5ft 7s 4s 22 25 mph 1001.4mb 47f 44f
10:50pm 3ft 7s 4s 13 18 mph 1002.3mb 47f 44f
9:50pm 2.5ft 7s 4s 13 16 mph 1002.9mb 47f 44f
8:50pm 2.5ft 7s 4s 13 16 mph 1003.6mb 47f 44f
7:50pm 2.5ft 5s 4s 11 13 mph 1004.1mb 47f 44f
6:50pm 1.6ft 6s 3s 11 13 mph 1004.6mb 47f 44f
5:50pm 1.3ft 3s 3s 11 13 mph 1005.1mb 47f 44f
4:50pm 1.6ft 3s 3s 13 16 mph 1005.7mb 47f 44f
3:50pm 2ft 3s 3s 16 18 mph 1006.7mb 47f 44f
2:50pm 1.6ft 3s 3s 16 18 mph 1007.9mb 47f 43f
1:50pm 1.6ft 3s 3s 13 16 mph 1009.1mb 47f 42f
12:50pm 2ft 3s 3s 18 22 mph 1009.7mb 47f 42f
11:50am 2ft 3s 3s 13 16 mph 1010.2mb 47f 41f
10:50am 1.6ft 3s 3s 13 18 mph 1010.5mb 47f 40f
9:50am 1.3ft 3s 3s 13 16 mph 1010.7mb 47f 40f
8:50am 1.3ft 3s 3s 11 16 mph 1011mb 47f 41f
7:50am 1.3ft 3s 3s 11 13 mph 1011.4mb 48f 41f
6:50am 1ft 3s 3s 9
mph
1011.7mb 47f 41f
5:50am 1ft 3s 3s 9 11 mph 1012mb 48f 41f
4:50am 1ft 3s 3s 9 11 mph 1012.2mb 48f 41f
3:50am 1ft 3s 3s 9 11 mph 1012.7mb 48f 41f
2:50am 1ft 3s 3s 11 13 mph 1012.9mb 48f 41f
1:50am 0.7ft  -  3s 11 13 mph 1013.3mb 48f 42f
12:50am 1ft 3s 3s 4 7 mph 1013.7mb 48f 42f
Sun 10/26 11:50pm 1.3ft 3s 3s 9 11 mph 1013.7mb 48f 43f
10:50pm 1ft 4s 3s 4 7 mph 1013.7mb 48f 43f
9:50pm 1ft 4s 4s 7 9 mph 1013.6mb 48f 43f
8:50pm 1ft 4s 4s 7 9 mph 1013.3mb 48f 43f
7:50pm 1ft 4s 4s 7 9 mph 1013.1mb 48f 43f
6:50pm 1ft 4s 4s 9 11 mph 1012.8mb 48f 43f
5:50pm 1.3ft 4s 3s 11 13 mph 1012.5mb 47f 43f
4:50pm 1.3ft 4s 3s 11 13 mph 1012.6mb 48f 43f
3:50pm 1.3ft 4s 3s 11 13 mph 1012.5mb 47f 44f
2:50pm 1.3ft 4s 4s 9 11 mph 1012.7mb 47f 43f